Wheeling, Minnesota
Current Conditions -  °F | °C
As of 10:14 PM on Sunday 25 Jan 2015 (Local Time) from KSYN Reporting Station
Clear Clear  
Wind Chill: 15°   Ceiling: Unl
Heat Index: 21°   Visibility: 10mi
Dew Point: 18°   Wind: 5mph
Humidity: 86%   Direction: 210°SSW
Pressure: 30"   Gusts: NA
Location:  44.3494°N, 93.0986°W
Report Text: KSYN 260414Z AUTO 21004KT 10SM CLR M06/M08 A3000 RMK AO2 T10591079
Loading
Personal Weather Stations






























Interactive Weather Map New forecast layout! Learn more

10-Day Weather Forecast

Advertisements
Track Severe Weather on mobile